sensor_id;sensor_type;location;lat;lon;timestamp;pressure;altitude;pressure_sealevel;temperature;humidity
49055;BME280;35405;52.344;14.530;2023-03-20T06:49:57;100657.19;;;10.34;100.00
49055;BME280;35405;52.344;14.530;2023-03-20T06:52:22;100654.69;;;10.37;100.00
49055;BME280;35405;52.344;14.530;2023-03-20T06:54:49;100661.19;;;10.41;100.00
49055;BME280;35405;52.344;14.530;2023-03-20T06:57:15;100671.47;;;10.44;100.00
49055;BME280;35405;52.344;14.530;2023-03-20T06:59:41;100670.66;;;10.44;100.00
49055;BME280;35405;52.344;14.530;2023-03-20T07:02:08;100670.50;;;10.35;100.00
49055;BME280;35405;52.344;14.530;2023-03-20T07:04:33;100679.47;;;10.36;100.00
49055;BME280;35405;52.344;14.530;2023-03-20T07:06:59;100674.25;;;10.39;100.00
49055;BME280;35405;52.344;14.530;2023-03-20T07:09:24;100674.84;;;10.36;100.00
49055;BME280;35405;52.344;14.530;2023-03-20T07:11:49;100678.09;;;10.38;100.00
49055;BME280;35405;52.344;14.530;2023-03-20T07:14:15;100672.88;;;10.42;100.00
49055;BME280;35405;52.344;14.530;2023-03-20T07:16:40;100681.53;;;10.44;100.00
49055;BME280;35405;52.344;14.530;2023-03-20T07:19:05;100685.53;;;10.51;100.00
49055;BME280;35405;52.344;14.530;2023-03-20T07:21:31;100687.44;;;10.51;100.00
49055;BME280;35405;52.344;14.530;2023-03-20T07:23:57;100688.78;;;10.53;100.00
49055;BME280;35405;52.344;14.530;2023-03-20T07:26:22;100695.81;;;10.55;100.00
49055;BME280;35405;52.344;14.530;2023-03-20T07:28:47;100702.06;;;10.55;100.00
49055;BME280;35405;52.344;14.530;2023-03-20T07:31:22;100697.19;;;10.52;100.00
49055;BME280;35405;52.344;14.530;2023-03-20T07:33:48;100701.47;;;10.58;100.00
49055;BME280;35405;52.344;14.530;2023-03-20T07:36:13;100708.69;;;10.68;100.00
49055;BME280;35405;52.344;14.530;2023-03-20T07:38:38;100711.41;;;10.68;100.00
49055;BME280;35405;52.344;14.530;2023-03-20T07:41:03;100717.97;;;10.67;100.00
49055;BME280;35405;52.344;14.530;2023-03-20T07:43:29;100723.63;;;10.70;100.00
49055;BME280;35405;52.344;14.530;2023-03-20T07:45:54;100723.28;;;10.77;100.00
49055;BME280;35405;52.344;14.530;2023-03-20T07:48:19;100719.31;;;10.88;100.00
49055;BME280;35405;52.344;14.530;2023-03-20T07:50:44;100723.69;;;10.89;100.00
49055;BME280;35405;52.344;14.530;2023-03-20T07:53:10;100727.84;;;11.01;100.00
49055;BME280;35405;52.344;14.530;2023-03-20T07:55:35;100730.81;;;11.23;100.00
49055;BME280;35405;52.344;14.530;2023-03-20T07:58:00;100730.97;;;11.32;100.00
49055;BME280;35405;52.344;14.530;2023-03-20T08:00:25;100732.13;;;11.44;100.00
49055;BME280;35405;52.344;14.530;2023-03-20T08:02:51;100730.94;;;11.51;100.00
49055;BME280;35405;52.344;14.530;2023-03-20T08:05:16;100738.34;;;11.64;100.00
49055;BME280;35405;52.344;14.530;2023-03-20T08:07:41;100738.13;;;11.79;100.00
49055;BME280;35405;52.344;14.530;2023-03-20T08:10:07;100743.94;;;11.92;100.00
49055;BME280;35405;52.344;14.530;2023-03-20T08:12:32;100745.53;;;11.93;100.00
49055;BME280;35405;52.344;14.530;2023-03-20T08:14:57;100747.06;;;11.99;100.00
49055;BME280;35405;52.344;14.530;2023-03-20T08:17:22;100750.22;;;12.06;100.00
49055;BME280;35405;52.344;14.530;2023-03-20T08:19:48;100757.09;;;12.17;100.00
49055;BME280;35405;52.344;14.530;2023-03-20T08:22:13;100759.03;;;12.17;100.00
49055;BME280;35405;52.344;14.530;2023-03-20T08:24:38;100756.31;;;12.17;100.00
49055;BME280;35405;52.344;14.530;2023-03-20T08:27:03;100757.72;;;12.14;100.00
49055;BME280;35405;52.344;14.530;2023-03-20T08:29:28;100755.38;;;12.21;100.00
49055;BME280;35405;52.344;14.530;2023-03-20T08:31:54;100755.63;;;12.25;100.00
49055;BME280;35405;52.344;14.530;2023-03-20T08:34:20;100757.22;;;12.26;100.00
49055;BME280;35405;52.344;14.530;2023-03-20T08:36:45;100747.03;;;12.31;100.00
49055;BME280;35405;52.344;14.530;2023-03-20T08:39:10;100752.72;;;12.49;100.00
49055;BME280;35405;52.344;14.530;2023-03-20T08:41:35;100751.28;;;12.65;100.00
49055;BME280;35405;52.344;14.530;2023-03-20T08:44:02;100755.31;;;12.81;100.00
49055;BME280;35405;52.344;14.530;2023-03-20T08:46:28;100759.44;;;12.93;100.00
49055;BME280;35405;52.344;14.530;2023-03-20T08:48:53;100758.94;;;13.04;100.00
49055;BME280;35405;52.344;14.530;2023-03-20T08:51:18;100767.41;;;13.17;100.00
49055;BME280;35405;52.344;14.530;2023-03-20T08:53:43;100779.66;;;13.33;100.00
49055;BME280;35405;52.344;14.530;2023-03-20T08:56:09;100773.16;;;13.65;100.00
49055;BME280;35405;52.344;14.530;2023-03-20T08:58:34;100780.44;;;13.70;100.00
49055;BME280;35405;52.344;14.530;2023-03-20T09:01:03;100779.84;;;13.59;100.00
49055;BME280;35405;52.344;14.530;2023-03-20T09:03:29;100787.97;;;13.50;100.00
49055;BME280;35405;52.344;14.530;2023-03-20T09:05:55;100792.00;;;13.53;100.00
49055;BME280;35405;52.344;14.530;2023-03-20T09:08:21;100798.75;;;13.69;100.00
49055;BME280;35405;52.344;14.530;2023-03-20T09:10:46;100800.72;;;13.78;100.00
49055;BME280;35405;52.344;14.530;2023-03-20T09:13:12;100805.22;;;13.96;100.00
49055;BME280;35405;52.344;14.530;2023-03-20T09:15:37;100803.25;;;14.41;100.00
49055;BME280;35405;52.344;14.530;2023-03-20T09:18:02;100820.91;;;14.35;100.00
49055;BME280;35405;52.344;14.530;2023-03-20T09:20:27;100817.25;;;13.95;100.00
49055;BME280;35405;52.344;14.530;2023-03-20T09:22:53;100824.50;;;13.55;100.00
49055;BME280;35405;52.344;14.530;2023-03-20T09:25:18;100832.94;;;13.17;100.00
49055;BME280;35405;52.344;14.530;2023-03-20T09:27:43;100825.06;;;13.15;100.00
49055;BME280;35405;52.344;14.530;2023-03-20T09:30:09;100832.03;;;13.08;100.00
49055;BME280;35405;52.344;14.530;2023-03-20T09:32:35;100843.06;;;12.61;100.00
49055;BME280;35405;52.344;14.530;2023-03-20T09:35:01;100848.19;;;12.16;100.00
49055;BME280;35405;52.344;14.530;2023-03-20T09:37:27;100851.63;;;11.89;100.00
49055;BME280;35405;52.344;14.530;2023-03-20T09:39:52;100842.78;;;11.59;100.00
49055;BME280;35405;52.344;14.530;2023-03-20T09:45:08;100839.47;;;11.43;100.00
49055;BME280;35405;52.344;14.530;2023-03-20T09:50:16;100838.69;;;10.95;100.00
49055;BME280;35405;52.344;14.530;2023-03-20T09:52:58;100843.81;;;10.78;100.00
49055;BME280;35405;52.344;14.530;2023-03-20T09:55:30;100844.22;;;10.61;100.00
49055;BME280;35405;52.344;14.530;2023-03-20T09:57:56;100836.41;;;10.54;100.00
49055;BME280;35405;52.344;14.530;2023-03-20T10:00:26;100848.22;;;10.44;100.00
49055;BME280;35405;52.344;14.530;2023-03-20T10:03:05;100837.63;;;10.43;100.00
49055;BME280;35405;52.344;14.530;2023-03-20T10:05:37;100841.22;;;10.38;100.00
49055;BME280;35405;52.344;14.530;2023-03-20T10:08:04;100835.84;;;10.28;100.00
49055;BME280;35405;52.344;14.530;2023-03-20T10:16:07;100829.75;;;10.41;100.00
49055;BME280;35405;52.344;14.530;2023-03-20T10:18:37;100827.34;;;10.35;100.00
49055;BME280;35405;52.344;14.530;2023-03-20T10:21:15;100825.31;;;10.16;100.00
49055;BME280;35405;52.344;14.530;2023-03-20T10:26:15;100820.66;;;9.88;100.00
49055;BME280;35405;52.344;14.530;2023-03-20T10:28:47;100811.84;;;10.01;100.00
49055;BME280;35405;52.344;14.530;2023-03-20T10:31:20;100813.75;;;10.35;100.00
49055;BME280;35405;52.344;14.530;2023-03-20T10:41:18;100829.38;;;10.77;100.00
49055;BME280;35405;52.344;14.530;2023-03-20T10:43:46;100827.88;;;10.66;100.00
49055;BME280;35405;52.344;14.530;2023-03-20T10:46:17;100830.38;;;10.33;100.00
49055;BME280;35405;52.344;14.530;2023-03-20T10:48:49;100832.63;;;10.21;100.00
49055;BME280;35405;52.344;14.530;2023-03-20T10:51:20;100834.53;;;10.20;100.00
49055;BME280;35405;52.344;14.530;2023-03-20T10:53:59;100838.13;;;10.11;100.00
49055;BME280;35405;52.344;14.530;2023-03-20T10:58:52;100827.75;;;10.18;100.00
49055;BME280;35405;52.344;14.530;2023-03-20T11:01:20;100828.13;;;10.40;100.00
49055;BME280;35405;52.344;14.530;2023-03-20T11:03:47;100830.06;;;10.64;100.00
49055;BME280;35405;52.344;14.530;2023-03-20T11:06:16;100829.38;;;11.44;100.00
49055;BME280;35405;52.344;14.530;2023-03-20T11:08:42;100815.09;;;12.23;100.00
49055;BME280;35405;52.344;14.530;2023-03-20T11:11:11;100819.72;;;12.55;100.00
49055;BME280;35405;52.344;14.530;2023-03-20T11:13:40;100833.53;;;12.58;100.00
49055;BME280;35405;52.344;14.530;2023-03-20T11:16:28;100841.69;;;12.31;100.00
49055;BME280;35405;52.344;14.530;2023-03-20T11:18:54;100851.53;;;12.13;100.00
49055;BME280;35405;52.344;14.530;2023-03-20T11:21:24;100852.59;;;12.45;100.00
49055;BME280;35405;52.344;14.530;2023-03-20T11:23:50;100847.28;;;12.53;100.00
49055;BME280;35405;52.344;14.530;2023-03-20T11:26:16;100848.72;;;12.65;100.00
49055;BME280;35405;52.344;14.530;2023-03-20T11:28:46;100848.41;;;12.66;100.00
49055;BME280;35405;52.344;14.530;2023-03-20T11:33:39;100849.44;;;12.70;100.00
49055;BME280;35405;52.344;14.530;2023-03-20T11:36:18;100855.72;;;12.85;100.00
49055;BME280;35405;52.344;14.530;2023-03-20T11:38:44;100856.63;;;12.94;100.00
49055;BME280;35405;52.344;14.530;2023-03-20T11:41:15;100865.81;;;12.98;100.00
49055;BME280;35405;52.344;14.530;2023-03-20T11:43:41;100855.91;;;13.02;100.00
49055;BME280;35405;52.344;14.530;2023-03-20T11:46:07;100858.75;;;12.83;100.00
49055;BME280;35405;52.344;14.530;2023-03-20T11:51:04;100861.13;;;12.57;100.00
49055;BME280;35405;52.344;14.530;2023-03-20T11:53:31;100859.78;;;12.54;100.00
49055;BME280;35405;52.344;14.530;2023-03-20T11:55:59;100863.13;;;12.51;100.00
49055;BME280;35405;52.344;14.530;2023-03-20T11:58:25;100868.50;;;12.56;100.00
49055;BME280;35405;52.344;14.530;2023-03-20T12:00:51;100854.56;;;12.72;100.00
49055;BME280;35405;52.344;14.530;2023-03-20T12:14:52;100853.28;;;13.11;100.00
49055;BME280;35405;52.344;14.530;2023-03-20T12:19:50;100851.84;;;13.55;100.00
49055;BME280;35405;52.344;14.530;2023-03-20T12:22:20;100862.69;;;13.82;100.00
49055;BME280;35405;52.344;14.530;2023-03-20T12:24:49;100863.94;;;13.76;100.00
49055;BME280;35405;52.344;14.530;2023-03-20T12:30:25;100860.59;;;13.65;100.00
49055;BME280;35405;52.344;14.530;2023-03-20T12:32:35;100853.34;;;13.47;100.00
49055;BME280;35405;52.344;14.530;2023-03-20T12:35:04;100848.78;;;13.56;100.00
49055;BME280;35405;52.344;14.530;2023-03-20T12:37:34;100847.72;;;13.43;100.00
49055;BME280;35405;52.344;14.530;2023-03-20T12:40:00;100846.19;;;13.37;100.00
49055;BME280;35405;52.344;14.530;2023-03-20T12:57:25;100830.97;;;13.59;100.00
49055;BME280;35405;52.344;14.530;2023-03-20T13:08:02;100844.38;;;13.05;100.00
49055;BME280;35405;52.344;14.530;2023-03-20T13:10:33;100841.16;;;12.89;100.00
49055;BME280;35405;52.344;14.530;2023-03-20T13:15:30;100841.03;;;12.67;100.00
49055;BME280;35405;52.344;14.530;2023-03-20T13:20:24;100836.28;;;12.72;100.00
49055;BME280;35405;52.344;14.530;2023-03-20T13:28:10;100829.69;;;12.46;100.00
49055;BME280;35405;52.344;14.530;2023-03-20T13:30:42;100825.13;;;12.41;100.00
49055;BME280;35405;52.344;14.530;2023-03-20T13:38:37;100829.53;;;12.23;100.00
49055;BME280;35405;52.344;14.530;2023-03-20T13:41:05;100830.78;;;12.31;100.00
49055;BME280;35405;52.344;14.530;2023-03-20T13:46:09;100823.97;;;12.61;100.00
49055;BME280;35405;52.344;14.530;2023-03-20T13:48:44;100816.06;;;12.73;100.00
49055;BME280;35405;52.344;14.530;2023-03-20T13:51:21;100813.53;;;12.63;100.00
49055;BME280;35405;52.344;14.530;2023-03-20T14:01:16;100812.63;;;12.68;100.00
49055;BME280;35405;52.344;14.530;2023-03-20T14:03:43;100812.13;;;12.79;100.00
49055;BME280;35405;52.344;14.530;2023-03-20T14:08:42;100801.72;;;12.95;100.00
49055;BME280;35405;52.344;14.530;2023-03-20T14:11:13;100806.13;;;13.19;100.00
49055;BME280;35405;52.344;14.530;2023-03-20T14:13:41;100808.75;;;13.74;100.00
49055;BME280;35405;52.344;14.530;2023-03-20T14:16:08;100809.81;;;13.64;100.00
49055;BME280;35405;52.344;14.530;2023-03-20T14:18:35;100810.91;;;13.13;100.00
49055;BME280;35405;52.344;14.530;2023-03-20T14:21:03;100797.78;;;12.88;100.00
49055;BME280;35405;52.344;14.530;2023-03-20T14:23:36;100807.56;;;12.75;100.00
49055;BME280;35405;52.344;14.530;2023-03-20T14:26:06;100812.31;;;12.69;100.00
49055;BME280;35405;52.344;14.530;2023-03-20T14:28:40;100814.53;;;12.40;100.00
49055;BME280;35405;52.344;14.530;2023-03-20T14:31:12;100808.22;;;12.25;100.00
49055;BME280;35405;52.344;14.530;2023-03-20T14:33:41;100810.50;;;12.04;100.00
49055;BME280;35405;52.344;14.530;2023-03-20T14:36:11;100816.75;;;12.05;100.00
49055;BME280;35405;52.344;14.530;2023-03-20T14:41:27;100818.16;;;12.02;100.00
49055;BME280;35405;52.344;14.530;2023-03-20T14:54:52;100805.56;;;12.53;100.00
49055;BME280;35405;52.344;14.530;2023-03-20T14:57:26;100805.84;;;12.51;100.00
49055;BME280;35405;52.344;14.530;2023-03-20T14:59:54;100798.44;;;12.38;100.00
49055;BME280;35405;52.344;14.530;2023-03-20T15:02:29;100808.16;;;12.30;100.00
49055;BME280;35405;52.344;14.530;2023-03-20T15:05:04;100807.31;;;12.16;100.00
49055;BME280;35405;52.344;14.530;2023-03-20T15:07:30;100806.38;;;12.07;100.00
49055;BME280;35405;52.344;14.530;2023-03-20T15:09:59;100807.13;;;11.94;100.00
49055;BME280;35405;52.344;14.530;2023-03-20T15:12:27;100812.06;;;11.92;100.00
49055;BME280;35405;52.344;14.530;2023-03-20T15:14:55;100812.50;;;11.80;100.00
49055;BME280;35405;52.344;14.530;2023-03-20T15:17:25;100807.41;;;11.73;100.00
49055;BME280;35405;52.344;14.530;2023-03-20T15:19:58;100811.09;;;11.63;100.00
49055;BME280;35405;52.344;14.530;2023-03-20T15:22:23;100800.88;;;11.55;100.00
49055;BME280;35405;52.344;14.530;2023-03-20T15:24:53;100805.13;;;11.42;100.00
49055;BME280;35405;52.344;14.530;2023-03-20T15:27:19;100802.50;;;11.37;100.00
49055;BME280;35405;52.344;14.530;2023-03-20T15:29:46;100804.69;;;11.35;100.00
49055;BME280;35405;52.344;14.530;2023-03-20T15:32:13;100799.63;;;11.29;100.00
49055;BME280;35405;52.344;14.530;2023-03-20T15:34:38;100804.28;;;11.28;100.00
49055;BME280;35405;52.344;14.530;2023-03-20T15:37:04;100803.16;;;11.29;100.00
49055;BME280;35405;52.344;14.530;2023-03-20T15:39:40;100801.22;;;11.30;100.00
49055;BME280;35405;52.344;14.530;2023-03-20T15:42:08;100791.69;;;11.32;100.00
49055;BME280;35405;52.344;14.530;2023-03-20T15:44:36;100791.69;;;11.32;100.00
49055;BME280;35405;52.344;14.530;2023-03-20T15:47:23;100782.91;;;11.35;100.00
49055;BME280;35405;52.344;14.530;2023-03-20T15:49:57;100794.63;;;11.36;100.00
49055;BME280;35405;52.344;14.530;2023-03-20T15:52:37;100786.81;;;11.29;100.00
49055;BME280;35405;52.344;14.530;2023-03-20T15:55:05;100787.69;;;11.25;100.00
49055;BME280;35405;52.344;14.530;2023-03-20T15:59:56;100790.72;;;11.23;100.00
49055;BME280;35405;52.344;14.530;2023-03-20T16:02:22;100788.00;;;11.23;100.00
49055;BME280;35405;52.344;14.530;2023-03-20T16:04:50;100781.44;;;11.24;100.00
49055;BME280;35405;52.344;14.530;2023-03-20T16:07:25;100783.28;;;11.29;100.00
49055;BME280;35405;52.344;14.530;2023-03-20T16:15:56;100781.00;;;11.36;100.00
49055;BME280;35405;52.344;14.530;2023-03-20T16:18:22;100779.66;;;11.33;100.00
49055;BME280;35405;52.344;14.530;2023-03-20T16:20:55;100775.41;;;11.27;100.00
49055;BME280;35405;52.344;14.530;2023-03-20T16:23:26;100785.84;;;11.20;100.00
49055;BME280;35405;52.344;14.530;2023-03-20T16:25:56;100785.56;;;11.21;100.00
49055;BME280;35405;52.344;14.530;2023-03-20T16:28:21;100779.53;;;11.25;100.00
49055;BME280;35405;52.344;14.530;2023-03-20T16:30:49;100787.47;;;11.21;100.00
49055;BME280;35405;52.344;14.530;2023-03-20T16:33:14;100788.41;;;11.11;100.00
49055;BME280;35405;52.344;14.530;2023-03-20T16:35:44;100779.88;;;10.99;100.00
49055;BME280;35405;52.344;14.530;2023-03-20T16:38:20;100783.81;;;10.88;100.00
49055;BME280;35405;52.344;14.530;2023-03-20T16:40:47;100788.81;;;10.81;100.00
49055;BME280;35405;52.344;14.530;2023-03-20T16:43:17;100781.50;;;10.76;100.00
49055;BME280;35405;52.344;14.530;2023-03-20T16:45:45;100782.66;;;10.70;100.00
49055;BME280;35405;52.344;14.530;2023-03-20T16:50:37;100789.25;;;10.64;100.00
49055;BME280;35405;52.344;14.530;2023-03-20T16:53:04;100786.00;;;10.62;100.00
49055;BME280;35405;52.344;14.530;2023-03-20T16:55:33;100794.75;;;10.59;100.00
49055;BME280;35405;52.344;14.530;2023-03-20T16:58:00;100797.19;;;10.60;100.00
49055;BME280;35405;52.344;14.530;2023-03-20T17:00:32;100785.22;;;10.61;100.00
49055;BME280;35405;52.344;14.530;2023-03-20T17:03:09;100784.97;;;10.58;100.00
49055;BME280;35405;52.344;14.530;2023-03-20T17:08:14;100798.03;;;10.56;100.00
49055;BME280;35405;52.344;14.530;2023-03-20T17:10:45;100796.75;;;10.53;100.00
49055;BME280;35405;52.344;14.530;2023-03-20T17:13:13;100797.63;;;10.43;100.00
49055;BME280;35405;52.344;14.530;2023-03-20T17:15:39;100808.06;;;10.36;100.00
49055;BME280;35405;52.344;14.530;2023-03-20T17:18:04;100801.56;;;10.32;100.00
49055;BME280;35405;52.344;14.530;2023-03-20T17:20:33;100801.63;;;10.27;100.00
49055;BME280;35405;52.344;14.530;2023-03-20T17:22:58;100803.78;;;10.25;100.00
49055;BME280;35405;52.344;14.530;2023-03-20T17:25:24;100806.25;;;10.21;100.00
49055;BME280;35405;52.344;14.530;2023-03-20T17:27:49;100806.00;;;10.18;100.00
49055;BME280;35405;52.344;14.530;2023-03-20T17:30:18;100803.63;;;10.11;100.00
49055;BME280;35405;52.344;14.530;2023-03-20T17:32:44;100806.63;;;10.10;100.00
49055;BME280;35405;52.344;14.530;2023-03-20T17:35:09;100805.00;;;10.08;100.00
49055;BME280;35405;52.344;14.530;2023-03-20T17:37:35;100803.13;;;10.04;100.00
49055;BME280;35405;52.344;14.530;2023-03-20T17:40:00;100805.34;;;10.02;100.00
49055;BME280;35405;52.344;14.530;2023-03-20T17:42:26;100804.81;;;10.00;100.00
49055;BME280;35405;52.344;14.530;2023-03-20T17:44:55;100816.81;;;9.94;100.00
49055;BME280;35405;52.344;14.530;2023-03-20T17:47:21;100802.47;;;9.88;100.00
49055;BME280;35405;52.344;14.530;2023-03-20T17:49:47;100812.78;;;9.86;100.00
49055;BME280;35405;52.344;14.530;2023-03-20T17:52:17;100807.13;;;9.82;100.00
49055;BME280;35405;52.344;14.530;2023-03-20T17:54:43;100807.13;;;9.82;100.00
49055;BME280;35405;52.344;14.530;2023-03-20T17:59:40;100810.38;;;9.84;100.00
49055;BME280;35405;52.344;14.530;2023-03-20T18:02:05;100813.34;;;9.83;100.00
49055;BME280;35405;52.344;14.530;2023-03-20T18:04:31;100811.44;;;9.83;100.00
49055;BME280;35405;52.344;14.530;2023-03-20T18:06:56;100807.41;;;9.81;100.00
49055;BME280;35405;52.344;14.530;2023-03-20T18:09:21;100814.50;;;9.77;100.00
49055;BME280;35405;52.344;14.530;2023-03-20T18:11:48;100811.78;;;9.77;100.00
49055;BME280;35405;52.344;14.530;2023-03-20T18:14:16;100815.84;;;9.74;100.00
49055;BME280;35405;52.344;14.530;2023-03-20T18:16:42;100805.84;;;9.70;100.00
49055;BME280;35405;52.344;14.530;2023-03-20T18:19:12;100802.91;;;9.66;100.00
49055;BME280;35405;52.344;14.530;2023-03-20T18:21:43;100808.06;;;9.62;100.00
49055;BME280;35405;52.344;14.530;2023-03-20T18:24:08;100803.19;;;9.59;100.00
49055;BME280;35405;52.344;14.530;2023-03-20T18:26:33;100806.22;;;9.58;100.00
49055;BME280;35405;52.344;14.530;2023-03-20T18:28:59;100801.34;;;9.55;100.00
49055;BME280;35405;52.344;14.530;2023-03-20T18:31:24;100799.16;;;9.57;100.00
49055;BME280;35405;52.344;14.530;2023-03-20T18:33:50;100800.53;;;9.54;100.00
49055;BME280;35405;52.344;14.530;2023-03-20T18:36:20;100801.09;;;9.51;100.00
49055;BME280;35405;52.344;14.530;2023-03-20T18:38:46;100792.41;;;9.49;100.00
49055;BME280;35405;52.344;14.530;2023-03-20T18:41:11;100798.41;;;9.46;100.00
49055;BME280;35405;52.344;14.530;2023-03-20T18:43:40;100798.41;;;9.46;100.00
49055;BME280;35405;52.344;14.530;2023-03-20T18:46:05;100793.00;;;9.41;100.00
49055;BME280;35405;52.344;14.530;2023-03-20T18:48:31;100788.66;;;9.40;100.00
49055;BME280;35405;52.344;14.530;2023-03-20T18:50:56;100793.00;;;9.41;100.00
49055;BME280;35405;52.344;14.530;2023-03-20T18:53:26;100789.22;;;9.42;100.00
49055;BME280;35405;52.344;14.530;2023-03-20T18:55:51;100789.22;;;9.42;100.00
49055;BME280;35405;52.344;14.530;2023-03-20T18:58:21;100779.72;;;9.39;100.00
49055;BME280;35405;52.344;14.530;2023-03-20T19:00:46;100781.09;;;9.37;100.00
49055;BME280;35405;52.344;14.530;2023-03-20T19:03:12;100778.13;;;9.33;100.00
49055;BME280;35405;52.344;14.530;2023-03-20T19:05:37;100774.88;;;9.31;100.00
49055;BME280;35405;52.344;14.530;2023-03-20T19:08:02;100776.78;;;9.31;100.00
49055;BME280;35405;52.344;14.530;2023-03-20T19:10:29;100776.50;;;9.32;100.00
49055;BME280;35405;52.344;14.530;2023-03-20T19:12:55;100775.13;;;9.35;100.00
49055;BME280;35405;52.344;14.530;2023-03-20T19:15:21;100782.69;;;9.38;100.00
49055;BME280;35405;52.344;14.530;2023-03-20T19:17:46;100771.81;;;9.43;100.00
49055;BME280;35405;52.344;14.530;2023-03-20T19:22:57;100789.47;;;9.46;100.00
49055;BME280;35405;52.344;14.530;2023-03-20T19:25:23;100788.13;;;9.43;100.00
49055;BME280;35405;52.344;14.530;2023-03-20T19:27:48;100792.50;;;9.39;100.00
49055;BME280;35405;52.344;14.530;2023-03-20T19:30:24;100791.66;;;9.38;100.00
49055;BME280;35405;52.344;14.530;2023-03-20T19:32:50;100786.78;;;9.35;100.00
49055;BME280;35405;52.344;14.530;2023-03-20T19:35:15;100791.72;;;9.28;100.00
49055;BME280;35405;52.344;14.530;2023-03-20T19:37:41;100788.47;;;9.26;100.00
49055;BME280;35405;52.344;14.530;2023-03-20T19:40:13;100792.84;;;9.22;100.00
49055;BME280;35405;52.344;14.530;2023-03-20T19:42:43;100782.31;;;9.15;100.00
49055;BME280;35405;52.344;14.530;2023-03-20T19:45:09;100786.38;;;9.13;100.00
49055;BME280;35405;52.344;14.530;2023-03-20T19:47:34;100788.28;;;9.12;100.00
49055;BME280;35405;52.344;14.530;2023-03-20T19:49:59;100781.22;;;9.11;100.00
49055;BME280;35405;52.344;14.530;2023-03-20T19:52:26;100786.13;;;9.09;100.00
49055;BME280;35405;52.344;14.530;2023-03-20T19:54:54;100783.69;;;9.08;100.00
49055;BME280;35405;52.344;14.530;2023-03-20T19:57:19;100789.16;;;9.03;100.00
49055;BME280;35405;52.344;14.530;2023-03-20T19:59:44;100780.47;;;9.01;100.00
49055;BME280;35405;52.344;14.530;2023-03-20T20:02:10;100782.91;;;9.02;100.00
49055;BME280;35405;52.344;14.530;2023-03-20T20:04:35;100783.44;;;9.04;100.00
49055;BME280;35405;52.344;14.530;2023-03-20T20:07:00;100792.69;;;9.03;100.00
49055;BME280;35405;52.344;14.530;2023-03-20T20:09:25;100783.19;;;9.06;100.00
49055;BME280;35405;52.344;14.530;2023-03-20T20:11:52;100781.81;;;9.03;100.00
49055;BME280;35405;52.344;14.530;2023-03-20T20:14:17;100779.66;;;9.00;100.00
49055;BME280;35405;52.344;14.530;2023-03-20T20:16:42;100769.13;;;8.93;100.00
49055;BME280;35405;52.344;14.530;2023-03-20T20:19:09;100780.53;;;8.90;100.00
49055;BME280;35405;52.344;14.530;2023-03-20T20:21:34;100778.34;;;8.87;100.00
49055;BME280;35405;52.344;14.530;2023-03-20T20:23:59;100769.44;;;8.82;100.00
49055;BME280;35405;52.344;14.530;2023-03-20T20:26:25;100770.81;;;8.79;100.00
49055;BME280;35405;52.344;14.530;2023-03-20T20:28:50;100782.47;;;8.75;100.00
49055;BME280;35405;52.344;14.530;2023-03-20T20:31:15;100777.03;;;8.75;100.00
49055;BME280;35405;52.344;14.530;2023-03-20T20:33:40;100781.97;;;8.73;100.00
49055;BME280;35405;52.344;14.530;2023-03-20T20:36:09;100780.06;;;8.73;100.00
49055;BME280;35405;52.344;14.530;2023-03-20T20:38:35;100774.38;;;8.69;100.00
49055;BME280;35405;52.344;14.530;2023-03-20T20:41:00;100775.44;;;8.74;100.00
49055;BME280;35405;52.344;14.530;2023-03-20T20:43:25;100771.06;;;8.78;100.00
49055;BME280;35405;52.344;14.530;2023-03-20T20:45:50;100775.94;;;8.81;100.00
49055;BME280;35405;52.344;14.530;2023-03-20T20:48:16;100769.41;;;8.87;100.00
49055;BME280;35405;52.344;14.530;2023-03-20T20:50:42;100775.09;;;8.90;100.00
49055;BME280;35405;52.344;14.530;2023-03-20T20:53:10;100779.69;;;8.90;100.00
49055;BME280;35405;52.344;14.530;2023-03-20T20:55:35;100783.25;;;8.90;100.00
49055;BME280;35405;52.344;14.530;2023-03-20T20:58:00;100776.72;;;8.86;100.00
49055;BME280;35405;52.344;14.530;2023-03-20T21:00:27;100786.78;;;8.86;100.00
49055;BME280;35405;52.344;14.530;2023-03-20T21:02:52;100780.56;;;8.80;100.00
49055;BME280;35405;52.344;14.530;2023-03-20T21:05:18;100778.13;;;8.79;100.00
49055;BME280;35405;52.344;14.530;2023-03-20T21:07:45;100775.97;;;8.76;100.00
49055;BME280;35405;52.344;14.530;2023-03-20T21:10:11;100781.91;;;8.78;100.00
49055;BME280;35405;52.344;14.530;2023-03-20T21:12:37;100787.88;;;8.80;100.00
